Time;durP1;ratioP1;P1;durP2;ratioP2;P2;SDS_P1;SDS_P2;PMS_P1;PMS_P2;Temp;Humidity;BMP_temperature;BMP_pressure;BME280_temperature;BME280_humidity;BME280_pressure;Samples;Min_cycle;Max_cycle;Signal;HPM_P1;HPM_P2
2023/12/06 00:00:29;;;;;;;8.03;6.27;;;;;;;5.04;68.63;94563.69;4997959;28;20358;-69
2023/12/06 00:02:55;;;;;;;8.53;6.43;;;;;;;5.04;68.53;94557.66;5004514;28;20281;-74
2023/12/06 00:05:20;;;;;;;8.97;6.40;;;;;;;5.27;67.84;94558.31;5007330;28;20333;-72
2023/12/06 00:07:46;;;;;;;6.27;5.27;;;;;;;5.33;67.41;94559.59;5003276;28;20223;-74
2023/12/06 00:10:11;;;;;;;7.60;5.77;;;;;;;5.29;67.79;94552.03;5003594;28;20226;-70
2023/12/06 00:12:37;;;;;;;7.70;6.17;;;;;;;5.26;67.88;94562.69;5001980;28;20230;-69
2023/12/06 00:15:02;;;;;;;7.50;5.43;;;;;;;5.25;67.84;94550.63;5007895;28;20234;-71
2023/12/06 00:17:28;;;;;;;6.33;5.10;;;;;;;5.32;67.73;94558.75;5007785;28;20297;-67
2023/12/06 00:19:53;;;;;;;6.63;5.20;;;;;;;5.34;68.04;94559.44;5006111;28;20301;-77
2023/12/06 00:22:18;;;;;;;7.73;5.60;;;;;;;5.20;68.28;94565.81;5003423;28;20356;-77
2023/12/06 00:24:44;;;;;;;7.60;5.70;;;;;;;5.26;68.34;94560.09;5001453;28;20376;-76
2023/12/06 00:27:12;;;;;;;6.43;5.63;;;;;;;5.25;68.61;94555.84;5003074;28;20257;-70
2023/12/06 00:29:37;;;;;;;9.40;6.30;;;;;;;5.35;68.44;94550.66;5005298;28;20273;-68
2023/12/06 00:32:03;;;;;;;6.67;5.30;;;;;;;5.34;68.08;94543.78;5006006;28;20255;-72
2023/12/06 00:34:29;;;;;;;6.53;5.27;;;;;;;5.24;68.65;94550.78;5020471;28;20231;-72
2023/12/06 00:36:57;;;;;;;6.53;5.37;;;;;;;5.13;68.91;94551.66;5006612;28;20230;-73
2023/12/06 00:39:23;;;;;;;6.83;5.10;;;;;;;5.27;68.69;94553.13;5001221;28;20234;-69
2023/12/06 00:41:48;;;;;;;7.23;5.20;;;;;;;5.33;68.72;94538.72;5002204;28;20215;-76
2023/12/06 00:44:13;;;;;;;5.20;4.53;;;;;;;5.38;68.34;94536.56;5001763;28;20223;-73
2023/12/06 00:46:39;;;;;;;5.73;4.60;;;;;;;5.27;68.66;94533.06;5000955;28;20246;-72
2023/12/06 00:49:04;;;;;;;5.10;4.47;;;;;;;5.27;68.50;94530.47;5000556;28;20226;-66
2023/12/06 00:51:36;;;;;;;5.13;4.33;;;;;;;5.27;68.67;94537.47;4997534;28;20219;-70
2023/12/06 00:54:01;;;;;;;5.23;4.43;;;;;;;5.31;68.31;94539.66;5003668;28;20242;-70
2023/12/06 00:56:26;;;;;;;4.87;4.40;;;;;;;5.46;67.78;94537.53;4989322;28;20257;-72
2023/12/06 00:58:52;;;;;;;5.27;4.47;;;;;;;5.42;67.66;94532.72;4999863;28;20219;-71
2023/12/06 01:01:17;;;;;;;5.37;4.13;;;;;;;5.41;67.28;94525.84;5005980;28;20223;-76
2023/12/06 01:03:43;;;;;;;5.27;4.27;;;;;;;5.40;67.34;94526.78;5003075;28;20246;-74
2023/12/06 01:06:08;;;;;;;6.40;4.80;;;;;;;5.40;67.34;94521.56;5003897;28;20354;-71
2023/12/06 01:08:34;;;;;;;5.57;4.63;;;;;;;5.46;66.99;94521.06;4999311;28;20191;-71
2023/12/06 01:11:00;;;;;;;6.30;4.37;;;;;;;5.34;67.20;94522.13;5005386;28;20233;-77
2023/12/06 01:13:25;;;;;;;4.73;4.23;;;;;;;5.41;67.41;94515.44;5000662;28;20229;-71
2023/12/06 01:15:50;;;;;;;5.70;4.00;;;;;;;5.31;67.29;94518.00;5005135;28;20250;-73
2023/12/06 01:18:16;;;;;;;5.00;4.03;;;;;;;5.34;67.29;94511.69;4998761;28;20223;-71
2023/12/06 01:20:42;;;;;;;5.67;4.30;;;;;;;5.38;67.13;94507.88;5003023;28;20211;-71
2023/12/06 01:23:07;;;;;;;4.60;4.10;;;;;;;5.51;66.86;94498.84;5006326;28;20219;-69
2023/12/06 01:25:33;;;;;;;5.10;4.53;;;;;;;5.42;67.05;94504.03;5000339;28;20238;-69
2023/12/06 01:27:59;;;;;;;4.67;4.17;;;;;;;5.32;67.15;94498.81;5000399;28;20222;-70
2023/12/06 01:30:24;;;;;;;6.57;4.90;;;;;;;5.42;67.37;94494.41;5001258;28;20215;-70
2023/12/06 01:32:50;;;;;;;4.80;4.07;;;;;;;5.43;67.11;94497.88;5000994;28;20188;-70
2023/12/06 01:35:15;;;;;;;4.43;4.00;;;;;;;5.51;66.94;94492.81;5005280;28;20179;-70
2023/12/06 01:37:41;;;;;;;4.83;4.33;;;;;;;5.58;66.64;94483.47;5004025;28;21134;-70
2023/12/06 01:40:07;;;;;;;5.43;4.40;;;;;;;5.59;66.63;94486.94;5006927;28;20226;-70
2023/12/06 01:42:32;;;;;;;4.47;3.90;;;;;;;5.52;66.52;94478.81;5000293;28;20591;-70
2023/12/06 01:44:58;;;;;;;5.47;3.50;;;;;;;5.52;66.53;94473.59;5004715;28;20236;-70
2023/12/06 01:47:26;;;;;;;4.00;3.60;;;;;;;5.50;66.50;94470.28;5001743;28;20223;-70
2023/12/06 01:49:57;;;;;;;3.90;3.43;;;;;;;5.50;66.48;94472.88;4999572;28;20304;-71
2023/12/06 01:52:23;;;;;;;4.00;3.60;;;;;;;5.45;66.67;94469.84;5000029;28;20242;-71
2023/12/06 01:54:49;;;;;;;4.40;3.77;;;;;;;5.59;66.21;94455.63;5003903;28;20214;-71
2023/12/06 01:57:15;;;;;;;4.20;3.23;;;;;;;5.47;66.62;94473.16;5003669;28;20214;-71
2023/12/06 01:59:41;;;;;;;3.17;2.87;;;;;;;5.49;66.35;94459.03;5002939;28;20210;-71
2023/12/06 02:02:07;;;;;;;5.33;3.70;;;;;;;5.33;67.08;94456.13;5003357;28;20266;-70
2023/12/06 02:04:33;;;;;;;4.20;3.60;;;;;;;5.43;66.72;94454.38;5002454;28;20261;-71
2023/12/06 02:06:59;;;;;;;3.77;3.03;;;;;;;5.46;66.31;94451.47;5006257;28;20242;-71
2023/12/06 02:09:26;;;;;;;3.40;3.10;;;;;;;5.51;66.48;94444.09;5002026;28;20302;-71
2023/12/06 02:11:52;;;;;;;3.40;3.10;;;;;;;5.48;66.50;94446.97;5002551;28;20206;-71
2023/12/06 02:14:18;;;;;;;3.70;3.37;;;;;;;5.47;66.63;94449.69;4998687;28;20183;-71
2023/12/06 02:16:44;;;;;;;3.50;3.20;;;;;;;5.48;66.65;94448.72;5008819;28;20288;-71
2023/12/06 02:19:18;;;;;;;3.60;3.30;;;;;;;5.29;66.97;94450.34;5004257;28;20224;-71
2023/12/06 02:21:46;;;;;;;4.83;3.90;;;;;;;5.45;66.84;94452.47;5002538;28;20253;-71
2023/12/06 02:24:12;;;;;;;4.67;4.03;;;;;;;5.47;66.81;94447.91;5001928;28;20220;-70
2023/12/06 02:26:38;;;;;;;5.43;4.33;;;;;;;5.37;67.32;94446.25;5003510;28;20218;-71
2023/12/06 02:29:03;;;;;;;3.80;3.40;;;;;;;5.30;67.66;94454.59;5010039;28;20211;-70
2023/12/06 02:31:29;;;;;;;4.10;3.70;;;;;;;5.44;67.19;94452.56;4998504;28;20226;-71
2023/12/06 02:33:54;;;;;;;4.90;3.40;;;;;;;5.33;67.52;94447.47;5009121;28;20338;-69
2023/12/06 02:36:22;;;;;;;4.40;3.37;;;;;;;5.18;68.43;94455.66;5008612;28;20309;-70
2023/12/06 02:38:48;;;;;;;3.93;3.53;;;;;;;5.40;67.67;94445.97;5010806;28;20270;-70
2023/12/06 02:41:16;;;;;;;3.60;3.30;;;;;;;5.46;67.46;94443.66;5005782;28;20290;-70
2023/12/06 02:43:43;;;;;;;4.10;3.70;;;;;;;5.45;67.14;94442.03;5004397;28;20223;-70
2023/12/06 02:46:09;;;;;;;3.30;3.00;;;;;;;5.60;66.68;94431.19;5002547;28;20251;-70
2023/12/06 02:48:34;;;;;;;4.40;3.43;;;;;;;5.60;66.75;94439.84;5009097;28;20351;-70
2023/12/06 02:50:59;;;;;;;4.80;4.03;;;;;;;5.44;67.53;94439.53;5007972;28;20222;-70
2023/12/06 02:53:25;;;;;;;4.00;3.43;;;;;;;5.43;67.45;94436.13;5000565;28;20287;-70
2023/12/06 02:55:50;;;;;;;4.67;3.50;;;;;;;5.48;67.59;94433.06;5004597;28;20211;-70
2023/12/06 02:58:16;;;;;;;5.03;3.83;;;;;;;5.45;67.41;94426.38;5009324;28;20219;-70
2023/12/06 03:00:41;;;;;;;4.87;4.00;;;;;;;5.54;67.33;94416.91;5005665;28;20249;-70
2023/12/06 03:03:06;;;;;;;4.67;4.27;;;;;;;5.56;67.23;94419.38;5000395;28;20220;-70
2023/12/06 03:05:32;;;;;;;4.27;3.87;;;;;;;5.47;67.44;94410.59;5007242;28;20188;-71
2023/12/06 03:07:57;;;;;;;4.47;3.90;;;;;;;5.50;67.34;94402.47;5005470;28;20219;-70
2023/12/06 03:10:23;;;;;;;4.20;3.77;;;;;;;5.58;67.25;94415.66;5011492;28;20218;-70
2023/12/06 03:12:48;;;;;;;4.20;3.43;;;;;;;5.61;67.03;94409.34;5005463;28;20315;-70
2023/12/06 03:15:14;;;;;;;5.47;3.87;;;;;;;5.61;67.10;94404.13;5018864;28;20223;-70
2023/12/06 03:17:39;;;;;;;5.10;4.00;;;;;;;5.66;66.73;94412.38;5009604;28;20203;-70
2023/12/06 03:20:06;;;;;;;4.70;3.53;;;;;;;5.68;67.21;94416.50;5005667;28;20187;-70
2023/12/06 03:22:32;;;;;;;3.50;3.20;;;;;;;5.60;67.08;94413.75;5006526;28;20310;-70
2023/12/06 03:24:58;;;;;;;3.90;3.53;;;;;;;5.56;67.63;94406.31;5005564;28;20284;-70
2023/12/06 03:27:23;;;;;;;3.50;3.20;;;;;;;5.79;66.81;94405.09;5004070;28;20219;-70
2023/12/06 03:29:49;;;;;;;3.50;2.97;;;;;;;5.64;66.76;94399.50;5006121;28;20179;-71
2023/12/06 03:32:14;;;;;;;3.43;3.07;;;;;;;5.65;66.85;94395.91;5010146;28;20202;-70
2023/12/06 03:34:40;;;;;;;3.70;3.40;;;;;;;5.65;67.17;94388.09;5000502;28;20318;-70
2023/12/06 03:37:05;;;;;;;3.50;3.20;;;;;;;5.54;67.34;94390.84;5004011;28;20231;-70
2023/12/06 03:39:32;;;;;;;3.63;3.33;;;;;;;5.71;66.96;94394.53;5007168;28;20219;-71
2023/12/06 03:41:57;;;;;;;3.37;3.07;;;;;;;5.53;67.73;94395.22;5004342;28;20226;-70
2023/12/06 03:44:23;;;;;;;3.67;3.00;;;;;;;5.49;67.80;94398.25;5005730;28;20187;-70
2023/12/06 03:46:49;;;;;;;3.40;2.93;;;;;;;5.60;67.45;94400.72;5005822;28;20242;-70
2023/12/06 03:49:14;;;;;;;3.33;3.03;;;;;;;5.54;67.53;94398.66;5003582;28;20219;-69
2023/12/06 03:51:40;;;;;;;3.40;2.90;;;;;;;5.68;67.29;94400.84;5008231;28;20262;-70
2023/12/06 03:54:05;;;;;;;3.97;3.60;;;;;;;5.53;67.47;94394.38;5010385;28;20261;-70
2023/12/06 03:56:30;;;;;;;3.60;3.30;;;;;;;5.67;66.95;94398.41;5002836;28;20210;-71
2023/12/06 03:58:56;;;;;;;3.40;3.10;;;;;;;5.50;67.50;94397.25;4995290;28;20212;-69
2023/12/06 04:01:21;;;;;;;3.43;3.00;;;;;;;5.47;67.83;94393.16;4997241;28;20223;-70
2023/12/06 04:03:47;;;;;;;4.40;2.90;;;;;;;5.57;67.57;94392.34;5001044;28;20219;-70
2023/12/06 04:06:12;;;;;;;3.67;3.30;;;;;;;5.70;66.99;94395.50;5003994;28;20226;-70
2023/12/06 04:08:37;;;;;;;3.50;3.20;;;;;;;5.73;66.69;94397.84;5006046;28;20186;-71
2023/12/06 04:11:04;;;;;;;3.77;3.10;;;;;;;5.68;66.63;94385.19;5003360;28;20194;-70
2023/12/06 04:13:29;;;;;;;3.30;3.00;;;;;;;5.63;66.91;94381.34;5003047;28;20234;-70
2023/12/06 04:15:55;;;;;;;3.10;2.80;;;;;;;5.70;66.90;94388.50;4999051;28;20222;-70
2023/12/06 04:18:20;;;;;;;3.67;3.00;;;;;;;5.87;66.57;94386.16;5006189;28;20214;-70
2023/12/06 04:20:46;;;;;;;3.43;2.90;;;;;;;5.83;66.63;94387.41;5000844;28;20200;-70
2023/12/06 04:23:11;;;;;;;3.07;2.67;;;;;;;5.75;66.91;94382.88;5005841;28;20187;-70
2023/12/06 04:25:37;;;;;;;4.57;3.50;;;;;;;5.74;67.21;94395.06;5006506;28;20229;-70
2023/12/06 04:28:03;;;;;;;3.47;3.17;;;;;;;5.73;67.50;94396.03;5006029;28;20219;-70
2023/12/06 04:30:28;;;;;;;3.27;2.97;;;;;;;5.69;67.63;94397.28;4988623;28;20262;-70
2023/12/06 04:32:53;;;;;;;3.77;3.33;;;;;;;5.91;67.86;94388.34;5003586;28;20219;-70
2023/12/06 04:35:19;;;;;;;3.37;3.07;;;;;;;5.91;67.33;94393.56;5004679;28;20175;-69
2023/12/06 04:37:45;;;;;;;3.77;3.30;;;;;;;5.81;67.85;94389.31;4989176;28;20269;-68
2023/12/06 04:40:11;;;;;;;4.80;3.03;;;;;;;5.91;67.96;94390.16;5001977;28;20218;-70
2023/12/06 04:42:36;;;;;;;3.27;2.97;;;;;;;5.89;68.28;94394.69;5003285;28;20250;-70
2023/12/06 04:45:02;;;;;;;4.43;3.73;;;;;;;5.96;68.02;94391.41;5000171;28;20319;-69
2023/12/06 04:47:27;;;;;;;3.73;3.40;;;;;;;5.84;68.46;94394.25;5001659;28;20243;-70
2023/12/06 04:49:53;;;;;;;5.40;4.30;;;;;;;5.86;68.87;94389.75;5004563;28;20302;-70
2023/12/06 04:52:18;;;;;;;5.10;4.10;;;;;;;5.85;69.14;94401.13;5005200;28;20282;-70
2023/12/06 04:54:43;;;;;;;4.87;4.37;;;;;;;5.76;69.20;94397.56;5004687;28;20231;-71
2023/12/06 04:57:09;;;;;;;5.33;3.93;;;;;;;5.77;69.69;94393.16;4997055;28;20314;-70
2023/12/06 04:59:34;;;;;;;4.50;4.10;;;;;;;5.75;70.04;94396.75;4998510;28;20283;-70
2023/12/06 05:02:00;;;;;;;4.00;3.60;;;;;;;5.73;69.90;94383.00;5005390;28;20278;-70
2023/12/06 05:04:27;;;;;;;5.83;3.73;;;;;;;5.80;69.90;94392.88;5003054;28;20234;-71
2023/12/06 05:06:53;;;;;;;4.17;3.70;;;;;;;5.72;70.76;94381.38;5005806;28;20225;-70
2023/12/06 05:09:18;;;;;;;4.37;3.67;;;;;;;5.74;71.28;94387.25;5001428;28;20222;-68
2023/12/06 05:11:43;;;;;;;3.90;3.50;;;;;;;5.74;71.32;94383.81;5004671;28;20187;-68
2023/12/06 05:14:09;;;;;;;4.30;3.90;;;;;;;5.70;71.75;94387.69;5007025;28;20182;-69
2023/12/06 05:16:35;;;;;;;5.30;4.40;;;;;;;5.60;72.20;94387.66;4998928;28;20215;-70
2023/12/06 05:19:00;;;;;;;4.33;3.70;;;;;;;5.74;72.07;94389.03;5002284;28;20246;-70
2023/12/06 05:21:26;;;;;;;4.87;3.60;;;;;;;5.69;72.05;94380.81;5006341;28;20310;-69
2023/12/06 05:23:52;;;;;;;4.17;3.77;;;;;;;5.78;71.81;94389.59;5002400;28;20183;-69
2023/12/06 05:26:18;;;;;;;4.70;3.73;;;;;;;5.78;71.55;94382.59;5004119;28;20593;-69
2023/12/06 05:28:43;;;;;;;4.90;3.90;;;;;;;5.78;72.06;94379.16;5000608;28;20222;-69
2023/12/06 05:31:09;;;;;;;5.23;3.93;;;;;;;5.75;72.06;94380.28;5002589;28;20278;-69
2023/12/06 05:33:34;;;;;;;4.30;3.57;;;;;;;5.81;72.10;94384.09;5000590;28;20226;-70
2023/12/06 05:36:00;;;;;;;5.00;3.97;;;;;;;5.81;72.04;94379.72;5006963;28;20278;-69
2023/12/06 05:38:25;;;;;;;4.93;3.73;;;;;;;5.77;72.17;94382.72;5003510;28;20194;-70
2023/12/06 05:40:51;;;;;;;5.57;3.73;;;;;;;5.60;73.22;94384.25;4999760;28;20237;-70
2023/12/06 05:43:16;;;;;;;4.40;3.90;;;;;;;5.71;72.93;94376.28;5006624;28;20246;-70
2023/12/06 05:45:41;;;;;;;5.20;4.20;;;;;;;5.77;72.67;94388.75;5006499;28;20250;-70
2023/12/06 05:48:07;;;;;;;4.90;4.03;;;;;;;5.80;72.93;94377.22;5005578;28;20234;-70
2023/12/06 05:50:33;;;;;;;4.80;4.30;;;;;;;5.89;72.51;94376.41;5003977;28;20214;-69
2023/12/06 05:52:59;;;;;;;7.47;4.27;;;;;;;5.85;72.60;94370.63;5002482;28;20226;-69
2023/12/06 05:55:24;;;;;;;5.37;4.07;;;;;;;5.78;73.15;94376.56;5005078;28;20218;-70
2023/12/06 05:57:49;;;;;;;6.13;4.10;;;;;;;5.72;73.52;94381.38;5003751;28;20214;-71
2023/12/06 06:00:17;;;;;;;5.73;4.73;;;;;;;5.87;73.17;94381.75;5006860;28;20222;-71
2023/12/06 06:02:43;;;;;;;7.43;4.77;;;;;;;5.83;73.32;94387.41;5006655;28;20222;-70
2023/12/06 06:05:09;;;;;;;6.20;4.00;;;;;;;5.83;73.10;94382.19;5012757;28;20195;-71
2023/12/06 06:07:35;;;;;;;6.03;4.27;;;;;;;5.64;73.94;94377.78;4995715;28;20218;-71
2023/12/06 06:10:00;;;;;;;6.03;4.57;;;;;;;5.71;74.52;94382.31;5005638;28;20230;-71
2023/12/06 06:12:26;;;;;;;4.97;4.27;;;;;;;5.81;74.23;94384.09;5005245;28;20769;-70
2023/12/06 06:14:51;;;;;;;5.17;4.47;;;;;;;5.75;74.68;94383.69;5005470;28;20274;-70
2023/12/06 06:17:16;;;;;;;4.90;4.40;;;;;;;5.76;74.28;94397.56;5009551;28;20266;-70
2023/12/06 06:19:42;;;;;;;5.43;4.33;;;;;;;5.75;74.51;94385.50;5003274;28;20223;-73
2023/12/06 06:22:07;;;;;;;6.37;4.90;;;;;;;5.91;74.52;94396.19;4999311;28;20233;-72
2023/12/06 06:24:33;;;;;;;6.30;5.13;;;;;;;6.07;73.80;94400.06;5007324;28;20234;-72
2023/12/06 06:26:59;;;;;;;7.47;5.13;;;;;;;6.10;73.61;94400.59;5005434;28;20210;-71
2023/12/06 06:29:24;;;;;;;6.10;5.23;;;;;;;5.99;73.82;94399.91;5005489;28;20211;-69
2023/12/06 06:31:50;;;;;;;6.80;4.60;;;;;;;6.01;73.95;94393.56;5003642;28;20211;-70
2023/12/06 06:34:15;;;;;;;6.10;5.43;;;;;;;5.89;74.19;94392.06;5007857;28;20223;-69
2023/12/06 06:36:40;;;;;;;7.87;4.93;;;;;;;5.90;74.65;94398.91;5008179;28;20233;-71
2023/12/06 06:39:07;;;;;;;6.57;5.30;;;;;;;6.07;74.46;94389.63;4990092;28;20225;-69
2023/12/06 06:41:32;;;;;;;8.53;5.47;;;;;;;6.17;73.82;94396.47;5006145;28;20210;-70
2023/12/06 06:43:58;;;;;;;6.47;5.10;;;;;;;6.09;74.07;94396.31;5006540;28;20226;-71
2023/12/06 06:46:23;;;;;;;6.10;4.60;;;;;;;6.13;73.49;94389.88;5008068;28;20235;-71
2023/12/06 06:48:49;;;;;;;6.80;5.00;;;;;;;6.16;73.73;94389.59;5001363;28;20222;-71
2023/12/06 06:51:14;;;;;;;6.07;4.60;;;;;;;6.16;73.55;94381.75;4997048;28;20215;-69
2023/12/06 06:53:40;;;;;;;6.80;4.67;;;;;;;6.02;73.48;94392.63;4983467;28;20210;-69
2023/12/06 06:56:05;;;;;;;6.77;4.87;;;;;;;5.93;74.51;94388.19;5001243;28;20211;-70
2023/12/06 06:58:31;;;;;;;7.50;5.50;;;;;;;5.99;74.73;94387.69;5004383;28;20222;-72
2023/12/06 07:00:56;;;;;;;8.67;4.73;;;;;;;6.08;74.34;94386.84;5004463;28;20230;-72
2023/12/06 07:03:22;;;;;;;5.93;5.10;;;;;;;6.07;74.67;94384.41;5003966;28;20222;-71
2023/12/06 07:05:48;;;;;;;10.30;5.70;;;;;;;6.09;74.75;94380.66;5005587;28;20202;-71
2023/12/06 07:08:13;;;;;;;5.80;5.10;;;;;;;6.17;74.26;94391.25;5003490;28;20204;-71
2023/12/06 07:10:38;;;;;;;6.77;5.17;;;;;;;6.12;74.04;94385.63;5007216;28;20222;-71
2023/12/06 07:13:05;;;;;;;6.23;5.60;;;;;;;6.22;74.01;94393.41;5003390;28;20229;-72
2023/12/06 07:15:30;;;;;;;6.53;5.67;;;;;;;6.19;74.21;94391.09;4995390;28;20227;-71
2023/12/06 07:17:56;;;;;;;6.37;5.50;;;;;;;6.07;74.97;94380.00;5007549;28;20198;-73
2023/12/06 07:20:21;;;;;;;6.00;4.87;;;;;;;6.11;74.94;94390.97;5002041;28;20215;-68
2023/12/06 07:22:47;;;;;;;5.97;5.00;;;;;;;6.29;74.50;94385.84;4996674;28;20227;-69
2023/12/06 07:25:15;;;;;;;6.60;5.20;;;;;;;6.16;74.86;94394.81;4998826;28;20326;-69
2023/12/06 07:27:44;;;;;;;6.90;5.90;;;;;;;6.10;75.26;94387.53;4998897;28;20622;-70
2023/12/06 07:30:15;;;;;;;5.93;5.33;;;;;;;6.24;75.18;94396.72;5001142;28;20215;-72
2023/12/06 07:32:40;;;;;;;6.87;5.73;;;;;;;6.27;75.16;94396.44;5001136;28;20195;-73
2023/12/06 07:35:06;;;;;;;7.73;5.57;;;;;;;6.31;74.92;94397.00;5000715;28;20230;-72
2023/12/06 07:37:32;;;;;;;7.73;6.70;;;;;;;6.36;75.50;94402.59;5006891;28;20277;-71
2023/12/06 07:39:57;;;;;;;7.63;5.50;;;;;;;6.36;74.93;94394.75;5006801;28;20231;-73
2023/12/06 07:42:26;;;;;;;7.37;5.80;;;;;;;6.24;75.77;94401.94;4999963;28;20316;-74
2023/12/06 07:44:51;;;;;;;6.53;5.87;;;;;;;6.30;75.42;94405.78;5005352;28;20206;-72
2023/12/06 07:47:17;;;;;;;7.40;6.23;;;;;;;6.30;75.86;94403.97;5005167;28;20242;-73
2023/12/06 07:49:43;;;;;;;9.77;7.53;;;;;;;6.44;75.18;94402.69;5005848;28;20231;-74
2023/12/06 07:52:08;;;;;;;8.03;6.43;;;;;;;6.41;75.16;94410.81;4998152;28;20223;-74
2023/12/06 07:54:34;;;;;;;8.63;7.07;;;;;;;6.28;75.53;94403.31;5001826;28;20561;-73
2023/12/06 07:56:59;;;;;;;7.73;6.50;;;;;;;6.37;75.68;94401.63;5001496;28;20191;-72
2023/12/06 07:59:25;;;;;;;6.70;5.83;;;;;;;6.39;75.69;94408.38;5002528;28;20206;-73
2023/12/06 08:01:50;;;;;;;7.63;6.10;;;;;;;6.41;76.11;94408.22;5003911;28;20235;-75
2023/12/06 08:04:16;;;;;;;6.83;6.17;;;;;;;6.26;76.30;94404.41;5000776;28;20278;-79
2023/12/06 08:06:41;;;;;;;6.33;5.67;;;;;;;6.39;75.67;94397.91;5000143;28;20247;-79
2023/12/06 08:09:12;;;;;;;7.67;5.97;;;;;;;6.14;76.96;94403.72;5003034;28;20233;-76
2023/12/06 08:11:38;;;;;;;10.50;6.93;;;;;;;6.09;76.91;94391.09;5004349;28;20245;-75
2023/12/06 08:14:04;;;;;;;9.27;6.83;;;;;;;6.16;77.17;94397.41;5005254;28;20223;-73
2023/12/06 08:16:29;;;;;;;10.07;7.40;;;;;;;6.28;76.84;94399.84;5006706;28;20247;-74
2023/12/06 08:18:55;;;;;;;9.70;7.20;;;;;;;6.23;76.25;94408.13;4998921;28;20238;-76
2023/12/06 08:21:20;;;;;;;8.87;7.17;;;;;;;6.34;76.89;94399.31;5001619;28;20223;-78
2023/12/06 08:23:47;;;;;;;8.47;7.13;;;;;;;6.16;76.81;94397.41;5002445;28;20281;-74
2023/12/06 08:26:12;;;;;;;9.03;6.60;;;;;;;6.24;77.44;94403.72;5008207;28;20191;-76
2023/12/06 08:28:39;;;;;;;11.17;6.80;;;;;;;6.41;76.64;94403.00;5002766;28;20232;-77
2023/12/06 08:31:06;;;;;;;7.63;6.67;;;;;;;6.32;76.48;94407.28;5007086;28;20302;-76
2023/12/06 08:33:31;;;;;;;7.17;6.23;;;;;;;6.36;76.53;94405.19;5003297;28;20227;-72
2023/12/06 08:35:57;;;;;;;7.87;5.77;;;;;;;6.51;75.90;94402.97;5008600;28;20219;-76
2023/12/06 08:38:22;;;;;;;7.87;6.10;;;;;;;6.40;76.15;94402.16;5004504;28;20194;-79
2023/12/06 08:40:47;;;;;;;7.37;6.10;;;;;;;6.43;76.16;94406.28;5007009;28;20249;-78
2023/12/06 08:43:13;;;;;;;7.40;5.87;;;;;;;6.47;76.23;94402.44;5005690;28;20227;-79
2023/12/06 08:45:38;;;;;;;8.80;6.47;;;;;;;6.47;76.21;94405.06;5003188;28;20334;-78
2023/12/06 08:48:04;;;;;;;9.20;7.13;;;;;;;6.50;75.85;94394.31;5003025;28;20215;-77
2023/12/06 08:50:29;;;;;;;9.60;6.80;;;;;;;6.57;76.10;94391.94;4996037;28;20211;-78
2023/12/06 08:52:55;;;;;;;10.57;7.50;;;;;;;6.66;76.21;94398.94;5000866;28;20223;-72
2023/12/06 08:55:20;;;;;;;9.40;7.13;;;;;;;6.53;75.91;94390.59;4988452;28;20226;-73
2023/12/06 08:57:46;;;;;;;9.03;6.40;;;;;;;6.59;75.91;94390.84;4996683;28;20225;-78
2023/12/06 09:00:12;;;;;;;7.10;5.90;;;;;;;6.66;75.97;94390.28;5000529;28;20223;-72
2023/12/06 09:02:42;;;;;;;7.87;6.20;;;;;;;6.73;75.65;94388.72;5002839;28;20203;-72
2023/12/06 09:05:11;;;;;;;6.67;5.90;;;;;;;6.78;75.81;94378.66;5002663;28;20274;-73
2023/12/06 09:07:40;;;;;;;8.53;6.50;;;;;;;6.74;76.14;94382.56;5003789;28;20235;-76
2023/12/06 09:10:09;;;;;;;6.57;5.73;;;;;;;6.63;76.11;94375.72;5002233;28;20227;-73
2023/12/06 09:12:34;;;;;;;7.43;5.73;;;;;;;6.78;75.58;94381.28;4996842;28;20234;-82
2023/12/06 09:15:00;;;;;;;7.83;5.93;;;;;;;6.73;75.90;94376.47;4988610;28;20195;-71
2023/12/06 09:17:25;;;;;;;7.10;5.90;;;;;;;6.76;76.16;94381.44;5022292;28;20194;-74
2023/12/06 09:19:52;;;;;;;6.83;5.30;;;;;;;6.68;76.52;94376.09;5004293;28;20261;-73
2023/12/06 09:22:20;;;;;;;8.80;6.13;;;;;;;6.67;75.60;94368.41;5008754;28;20230;-71
2023/12/06 09:24:47;;;;;;;8.87;6.27;;;;;;;6.68;75.47;94364.81;5000016;28;20234;-75
2023/12/06 09:27:13;;;;;;;7.43;5.70;;;;;;;6.76;75.52;94362.31;5005364;28;20219;-72
2023/12/06 09:29:39;;;;;;;6.50;5.80;;;;;;;6.77;75.39;94359.56;5006291;28;20190;-74
2023/12/06 09:32:05;;;;;;;8.07;5.53;;;;;;;6.57;76.50;94358.81;5008120;28;20215;-81
2023/12/06 09:34:31;;;;;;;9.80;6.90;;;;;;;6.83;75.37;94358.16;5004068;28;20326;-74
2023/12/06 09:36:56;;;;;;;13.00;8.47;;;;;;;6.78;75.83;94355.16;5006410;28;20306;-72
2023/12/06 09:39:22;;;;;;;10.00;7.73;;;;;;;6.92;75.02;94349.44;4999623;28;20365;-72
2023/12/06 09:41:48;;;;;;;8.43;5.97;;;;;;;6.87;75.30;94351.69;5003317;28;20215;-82
2023/12/06 09:44:17;;;;;;;7.70;6.10;;;;;;;6.59;76.28;94346.44;5002181;28;20218;-76
2023/12/06 09:46:44;;;;;;;7.43;6.50;;;;;;;6.76;75.77;94344.88;5006140;28;20238;-78
2023/12/06 09:49:10;;;;;;;7.90;5.97;;;;;;;6.80;75.72;94348.00;5002653;28;20281;-73
2023/12/06 09:51:36;;;;;;;7.47;6.67;;;;;;;6.92;75.55;94338.97;4996815;28;20271;-76
2023/12/06 09:54:01;;;;;;;8.70;6.43;;;;;;;6.98;75.30;94340.22;4983311;28;20187;-74
2023/12/06 09:56:27;;;;;;;9.53;6.70;;;;;;;6.96;74.94;94334.31;4984192;28;20188;-75
2023/12/06 09:58:52;;;;;;;7.77;6.77;;;;;;;7.02;75.32;94326.69;5000886;28;20242;-74
2023/12/06 10:01:17;;;;;;;7.30;6.20;;;;;;;7.12;75.02;94331.03;4998793;28;20228;-71
2023/12/06 10:03:43;;;;;;;7.37;6.03;;;;;;;7.07;75.03;94332.28;5007306;28;20283;-76
2023/12/06 10:06:09;;;;;;;7.57;5.97;;;;;;;7.19;75.24;94334.69;5006309;28;20222;-78
2023/12/06 10:08:35;;;;;;;8.87;6.30;;;;;;;7.14;75.83;94326.50;5008682;28;20206;-77
2023/12/06 10:11:04;;;;;;;6.27;5.53;;;;;;;7.16;75.07;94321.91;4995351;28;20222;-76
2023/12/06 10:13:32;;;;;;;6.33;4.73;;;;;;;7.25;74.52;94319.25;5000067;28;20318;-77
2023/12/06 10:15:57;;;;;;;6.67;4.80;;;;;;;7.16;75.06;94320.13;5005754;28;20242;-77
2023/12/06 10:18:24;;;;;;;5.57;4.83;;;;;;;7.17;74.68;94316.56;4997778;28;20226;-77
2023/12/06 10:20:50;;;;;;;5.97;4.60;;;;;;;7.39;74.18;94320.53;5005895;28;20194;-74
2023/12/06 10:23:15;;;;;;;7.83;4.53;;;;;;;7.26;74.02;94315.66;4986556;28;20214;-74
2023/12/06 10:25:41;;;;;;;6.53;4.87;;;;;;;7.18;74.65;94314.75;5002756;28;20243;-75
2023/12/06 10:28:07;;;;;;;5.10;3.83;;;;;;;7.29;74.07;94325.81;5006218;28;20222;-74
2023/12/06 10:30:33;;;;;;;7.87;4.33;;;;;;;7.14;74.52;94321.28;5001970;28;20301;-73
2023/12/06 10:32:59;;;;;;;4.47;4.07;;;;;;;7.08;74.53;94314.81;5007259;28;20183;-72
2023/12/06 10:35:25;;;;;;;5.83;4.37;;;;;;;7.00;74.71;94306.88;5001760;28;20208;-73
2023/12/06 10:37:51;;;;;;;6.77;4.10;;;;;;;7.05;75.32;94313.31;4995975;28;20230;-72
2023/12/06 10:40:18;;;;;;;5.57;4.60;;;;;;;7.11;75.39;94303.25;4997711;28;20227;-71
2023/12/06 10:42:51;;;;;;;6.33;4.97;;;;;;;7.17;74.98;94308.72;4995011;28;20235;-74
2023/12/06 10:45:19;;;;;;;6.27;4.20;;;;;;;7.16;74.60;94299.22;4995667;28;20222;-74
2023/12/06 10:47:47;;;;;;;6.40;4.43;;;;;;;7.30;74.48;94310.97;4987703;28;20189;-78
2023/12/06 10:50:15;;;;;;;5.43;4.33;;;;;;;7.13;74.41;94302.13;5024347;28;20191;-74
2023/12/06 10:52:43;;;;;;;6.50;4.37;;;;;;;7.11;74.55;94296.25;5005606;28;20219;-73
2023/12/06 10:55:10;;;;;;;4.00;3.47;;;;;;;7.23;74.46;94296.84;4994392;28;20241;-75
2023/12/06 10:57:37;;;;;;;5.73;3.80;;;;;;;7.28;74.88;94297.22;5007590;28;20227;-72
2023/12/06 11:00:04;;;;;;;6.03;3.90;;;;;;;7.28;74.36;94298.03;5009154;28;20269;-73
2023/12/06 11:02:30;;;;;;;4.80;4.23;;;;;;;7.28;75.22;94290.19;5005745;28;20585;-73
2023/12/06 11:05:05;;;;;;;7.20;4.10;;;;;;;7.35;75.27;94297.41;5000397;28;20282;-73
2023/12/06 11:07:53;;;;;;;5.43;3.90;;;;;;;7.33;75.90;94300.19;5004897;28;20255;-71
2023/12/06 11:10:41;;;;;;;4.67;3.33;;;;;;;7.41;75.35;94281.16;5003712;28;20227;-79
2023/12/06 11:13:21;;;;;;;4.07;3.67;;;;;;;7.38;74.92;94290.13;5004307;28;20310;-74
2023/12/06 11:16:07;;;;;;;4.83;3.50;;;;;;;7.27;74.75;94295.56;5010874;28;20233;-68
2023/12/06 11:18:44;;;;;;;4.17;3.53;;;;;;;7.11;75.85;94295.41;5009179;28;20266;-74
2023/12/06 11:21:11;;;;;;;5.27;3.27;;;;;;;7.23;75.10;94283.75;5004412;28;20223;-73
2023/12/06 11:23:37;;;;;;;4.57;3.27;;;;;;;7.42;75.08;94294.06;5021838;28;20256;-68
2023/12/06 11:26:03;;;;;;;4.23;3.83;;;;;;;7.43;75.04;94284.41;5006506;28;20222;-82
2023/12/06 11:28:40;;;;;;;5.73;4.00;;;;;;;7.36;74.85;94299.09;5004924;28;20230;-70
2023/12/06 11:31:07;;;;;;;3.93;3.43;;;;;;;7.44;74.23;94283.47;5020360;28;20223;-74
2023/12/06 11:33:33;;;;;;;5.40;3.43;;;;;;;7.43;74.44;94290.50;5004534;28;20253;-75
2023/12/06 11:35:59;;;;;;;6.83;6.13;;;;;;;7.54;74.39;94291.22;5022811;28;20218;-78